createdAt,value
2019-05-17T00:00:00.016Z,12.03
2019-05-17T00:01:07.578Z,11.13
2019-05-17T00:02:17.318Z,11.80
2019-05-17T00:03:26.926Z,11.70
2019-05-17T00:04:36.266Z,12.40
2019-05-17T00:05:42.723Z,11.40
2019-05-17T00:06:50.217Z,12.87
2019-05-17T00:07:57.383Z,12.93
2019-05-17T00:09:07.067Z,12.17
2019-05-17T00:10:17.023Z,13.07
2019-05-17T00:11:24.205Z,13.47
2019-05-17T00:12:31.443Z,12.80
2019-05-17T00:13:39.113Z,12.90
2019-05-17T00:14:47.251Z,15.17
2019-05-17T00:15:56.579Z,12.03
2019-05-17T00:17:03.896Z,15.43
2019-05-17T00:18:11.855Z,15.10
2019-05-17T00:19:19.047Z,14.23
2019-05-17T00:20:26.738Z,14.53
2019-05-17T00:21:33.587Z,14.10
2019-05-17T00:22:41.493Z,15.17
2019-05-17T00:23:48.274Z,16.37
2019-05-17T00:24:56.800Z,14.60
2019-05-17T00:26:04.194Z,15.10
2019-05-17T00:27:11.681Z,16.30
2019-05-17T00:28:18.780Z,15.53
2019-05-17T00:29:26.483Z,15.73
2019-05-17T00:30:33.730Z,14.60
2019-05-17T00:31:41.205Z,14.90
2019-05-17T00:32:48.081Z,14.87
2019-05-17T00:33:56.674Z,13.87
2019-05-17T00:35:03.726Z,15.33
2019-05-17T00:36:11.967Z,14.67
2019-05-17T00:37:19.304Z,14.63
2019-05-17T00:38:27.522Z,16.07
2019-05-17T00:39:36.689Z,14.63
2019-05-17T00:40:44.120Z,14.93
2019-05-17T00:41:50.902Z,14.60
2019-05-17T00:42:58.411Z,15.70
2019-05-17T00:44:06.318Z,15.23
2019-05-17T00:45:17.302Z,15.87
2019-05-17T00:46:23.366Z,15.50
2019-05-17T00:47:30.871Z,14.50
2019-05-17T00:48:58.157Z,15.63
2019-05-17T00:50:07.379Z,15.27
2019-05-17T00:51:16.700Z,16.10
2019-05-17T00:52:24.410Z,15.90
2019-05-17T00:53:31.527Z,16.40
2019-05-17T00:54:39.028Z,18.27
2019-05-17T00:55:46.645Z,18.03
2019-05-17T00:56:56.535Z,17.90
2019-05-17T00:58:06.751Z,16.90
2019-05-17T00:59:16.824Z,18.80
2019-05-17T01:00:23.416Z,15.67
2019-05-17T01:01:31.466Z,16.67
2019-05-17T01:02:38.217Z,16.00
2019-05-17T01:03:47.676Z,17.23
2019-05-17T01:04:56.727Z,18.43
2019-05-17T01:06:06.158Z,16.70
2019-05-17T01:07:12.895Z,17.90
2019-05-17T01:08:20.373Z,17.70
2019-05-17T01:09:27.379Z,18.40
2019-05-17T01:10:36.898Z,17.33
2019-05-17T01:11:43.727Z,18.20
2019-05-17T01:12:51.699Z,19.23
2019-05-17T01:13:58.796Z,17.80
2019-05-17T01:15:07.573Z,19.90
2019-05-17T01:16:16.549Z,22.03
2019-05-17T01:17:24.231Z,19.50
2019-05-17T01:18:30.993Z,19.10
2019-05-17T01:19:38.511Z,18.13
2019-05-17T01:20:47.284Z,18.20
2019-05-17T01:21:56.844Z,19.93
2019-05-17T01:23:03.390Z,19.50
2019-05-17T01:24:10.969Z,18.20
2019-05-17T01:25:17.791Z,20.20
2019-05-17T01:26:26.732Z,16.80
2019-05-17T01:27:34.305Z,20.20
2019-05-17T01:28:42.179Z,18.07
2019-05-17T01:29:49.263Z,19.67
2019-05-17T01:30:57.452Z,18.90
2019-05-17T01:32:06.751Z,18.50
2019-05-17T01:33:13.984Z,20.20
2019-05-17T01:34:21.063Z,19.27
2019-05-17T01:35:28.538Z,18.87
2019-05-17T01:36:37.063Z,18.10
2019-05-17T01:37:44.545Z,18.17
2019-05-17T01:38:51.306Z,19.00
2019-05-17T01:39:58.803Z,18.13
2019-05-17T01:41:07.031Z,20.07
2019-05-17T01:42:17.120Z,17.97
2019-05-17T01:43:24.230Z,17.80
2019-05-17T01:44:32.726Z,19.30
2019-05-17T01:45:40.236Z,19.33
2019-05-17T01:46:47.732Z,18.10
2019-05-17T01:47:56.308Z,18.20
2019-05-17T01:49:06.724Z,18.90
2019-05-17T01:50:13.455Z,17.00
2019-05-17T01:51:20.987Z,19.87
2019-05-17T01:52:27.781Z,19.27
2019-05-17T01:53:36.499Z,19.27
2019-05-17T01:54:43.475Z,19.07
2019-05-17T01:55:51.643Z,17.90
2019-05-17T01:56:58.404Z,19.83
2019-05-17T01:58:07.290Z,19.73
2019-05-17T01:59:14.456Z,17.40
2019-05-17T02:00:26.425Z,17.97
2019-05-17T02:01:32.464Z,18.37
2019-05-17T02:02:42.389Z,18.33
2019-05-17T02:03:49.559Z,18.83
2019-05-17T02:04:57.405Z,18.37
2019-05-17T02:06:07.232Z,17.80
2019-05-17T02:07:13.738Z,17.97
2019-05-17T02:08:20.474Z,19.27
2019-05-17T02:09:37.075Z,18.03
2019-05-17T02:10:37.789Z,17.70
2019-05-17T02:11:46.696Z,19.50
2019-05-17T02:12:53.632Z,19.33
2019-05-17T02:14:01.142Z,17.30
2019-05-17T02:15:10.071Z,18.00
2019-05-17T02:16:17.539Z,17.20
2019-05-17T02:17:26.584Z,19.20
2019-05-17T02:18:33.934Z,18.40
2019-05-17T02:19:40.788Z,17.80
2019-05-17T02:20:48.289Z,17.50
2019-05-17T02:21:57.005Z,17.77
2019-05-17T02:23:07.268Z,17.10
2019-05-17T02:24:13.548Z,16.20
2019-05-17T02:25:21.250Z,17.27
2019-05-17T02:26:27.988Z,18.27
2019-05-17T02:27:41.274Z,17.63
2019-05-17T02:28:44.735Z,17.67
2019-05-17T02:29:52.242Z,17.60
2019-05-17T02:31:03.236Z,17.20
2019-05-17T02:32:12.613Z,17.67
2019-05-17T02:33:18.930Z,17.70
2019-05-17T02:34:26.783Z,16.70
2019-05-17T02:35:34.380Z,18.33
2019-05-17T02:36:43.098Z,19.30
2019-05-17T02:37:53.216Z,17.67
2019-05-17T02:38:59.302Z,18.13
2019-05-17T02:40:08.719Z,18.07
2019-05-17T02:41:16.727Z,16.20
2019-05-17T02:42:23.484Z,17.17
2019-05-17T02:43:33.551Z,17.90
2019-05-17T02:44:43.581Z,17.57
2019-05-17T02:45:52.492Z,17.80
2019-05-17T02:46:57.800Z,19.43
2019-05-17T02:48:05.362Z,18.23
2019-05-17T02:49:13.792Z,17.20
2019-05-17T02:50:23.356Z,16.40
2019-05-17T02:51:32.370Z,18.60
2019-05-17T02:52:43.050Z,18.87
2019-05-17T02:53:48.584Z,17.50
2019-05-17T02:54:56.274Z,19.00
2019-05-17T02:56:03.705Z,18.00
2019-05-17T02:57:14.288Z,16.73
2019-05-17T02:58:23.086Z,18.13
2019-05-17T02:59:32.785Z,19.00
2019-05-17T03:00:38.262Z,18.63
2019-05-17T03:01:45.746Z,18.77
2019-05-17T03:02:53.750Z,17.97
2019-05-17T03:04:03.783Z,17.97
2019-05-17T03:05:12.806Z,18.73
2019-05-17T03:06:22.739Z,18.27
2019-05-17T03:07:32.445Z,17.73
2019-05-17T03:08:38.516Z,17.87
2019-05-17T03:09:45.323Z,17.00
2019-05-17T03:10:53.646Z,17.80
2019-05-17T03:12:03.373Z,17.60
2019-05-17T03:13:13.230Z,17.00
2019-05-17T03:14:19.159Z,16.63
2019-05-17T03:15:27.078Z,18.13
2019-05-17T03:16:34.110Z,18.23
2019-05-17T03:17:43.477Z,17.80
2019-05-17T03:18:53.003Z,19.07
2019-05-17T03:20:03.563Z,17.90
2019-05-17T03:21:08.649Z,17.10
2019-05-17T03:22:16.134Z,17.43
2019-05-17T03:23:23.686Z,18.00
2019-05-17T03:24:33.251Z,17.50
2019-05-17T03:25:43.786Z,19.20
2019-05-17T03:26:52.672Z,18.20
2019-05-17T03:27:58.213Z,17.87
2019-05-17T03:29:06.093Z,17.13
2019-05-17T03:30:17.536Z,17.67
2019-05-17T03:31:26.434Z,18.87
2019-05-17T03:32:36.126Z,17.07
2019-05-17T03:33:45.970Z,17.30
2019-05-17T03:34:56.130Z,16.50
2019-05-17T03:36:06.202Z,18.23
2019-05-17T03:37:15.566Z,17.80
2019-05-17T03:38:19.341Z,17.13
2019-05-17T03:39:26.501Z,16.97
2019-05-17T03:41:03.663Z,17.73
2019-05-17T03:41:43.357Z,16.20
2019-05-17T03:42:53.500Z,17.70
2019-05-17T03:44:02.941Z,15.50
2019-05-17T03:45:09.324Z,18.90
2019-05-17T03:46:16.803Z,17.70
2019-05-17T03:47:24.917Z,19.00
2019-05-17T03:48:33.394Z,17.50
2019-05-17T03:49:43.707Z,17.17
2019-05-17T03:50:52.860Z,16.77
2019-05-17T03:52:02.494Z,18.03
2019-05-17T03:53:08.632Z,16.57
2019-05-17T03:54:16.514Z,16.70
2019-05-17T03:55:23.642Z,18.90
2019-05-17T03:56:33.036Z,18.30
2019-05-17T03:57:44.065Z,17.30
2019-05-17T03:58:53.127Z,18.33
2019-05-17T03:59:59.210Z,18.90
2019-05-17T04:01:07.131Z,17.73
2019-05-17T04:02:13.979Z,16.40
2019-05-17T04:03:22.899Z,18.90
2019-05-17T04:04:32.905Z,19.73
2019-05-17T04:05:42.632Z,19.20
2019-05-17T04:06:48.464Z,19.17
2019-05-17T04:07:56.007Z,18.33
2019-05-17T04:09:04.573Z,19.63
2019-05-17T04:10:15.258Z,19.00
2019-05-17T04:11:31.000Z,17.93
2019-05-17T04:12:32.754Z,18.50
2019-05-17T04:13:43.003Z,18.17
2019-05-17T04:14:53.370Z,17.77
2019-05-17T04:15:59.341Z,18.07
2019-05-17T04:17:06.873Z,18.20
2019-05-17T04:18:13.723Z,20.30
2019-05-17T04:19:22.966Z,18.00
2019-05-17T04:20:33.120Z,19.43
2019-05-17T04:21:42.693Z,19.80
2019-05-17T04:22:48.549Z,18.50
2019-05-17T04:23:56.082Z,18.13
2019-05-17T04:25:03.368Z,18.23
2019-05-17T04:26:13.571Z,18.00
2019-05-17T04:27:22.798Z,17.90
2019-05-17T04:28:29.132Z,18.93
2019-05-17T04:29:36.231Z,17.20
2019-05-17T04:30:44.612Z,18.67
2019-05-17T04:31:54.240Z,19.40
2019-05-17T04:33:03.596Z,18.83
2019-05-17T04:34:09.051Z,19.37
2019-05-17T04:35:16.654Z,17.90
2019-05-17T04:36:23.491Z,17.90
2019-05-17T04:37:33.602Z,18.50
2019-05-17T04:38:39.650Z,20.40
2019-05-17T04:39:47.548Z,18.30
2019-05-17T04:40:54.346Z,18.17
2019-05-17T04:42:03.696Z,20.33
2019-05-17T04:43:13.582Z,20.50
2019-05-17T04:44:22.966Z,18.40
2019-05-17T04:45:29.601Z,17.70
2019-05-17T04:46:37.150Z,18.00
2019-05-17T04:47:44.806Z,20.27
2019-05-17T04:48:53.609Z,20.40
2019-05-17T04:50:04.031Z,17.93
2019-05-17T04:51:13.181Z,19.00
2019-05-17T04:52:22.849Z,17.27
2019-05-17T04:53:32.626Z,17.03
2019-05-17T04:54:38.720Z,18.13
2019-05-17T04:55:47.206Z,16.63
2019-05-17T04:56:55.772Z,18.30
2019-05-17T04:58:04.430Z,17.87
2019-05-17T04:59:13.883Z,16.63
2019-05-17T05:00:21.922Z,17.07
2019-05-17T05:01:32.750Z,17.37
2019-05-17T05:02:39.398Z,18.17
2019-05-17T05:03:46.606Z,17.40
2019-05-17T05:04:54.114Z,17.00
2019-05-17T05:06:03.019Z,19.20
2019-05-17T05:07:13.592Z,19.27
2019-05-17T05:08:22.251Z,18.87
2019-05-17T05:09:28.744Z,18.97
2019-05-17T05:10:38.508Z,16.83
2019-05-17T05:11:59.565Z,16.13
2019-05-17T05:12:53.953Z,17.00
2019-05-17T05:14:02.722Z,16.93
2019-05-17T05:15:12.200Z,15.70
2019-05-17T05:16:23.447Z,17.53
2019-05-17T05:17:32.694Z,17.43
2019-05-17T05:18:41.937Z,19.07
2019-05-17T05:19:48.266Z,17.03
2019-05-17T05:20:55.854Z,17.90
2019-05-17T05:22:04.603Z,17.17
2019-05-17T05:23:12.907Z,17.50
2019-05-17T05:24:22.108Z,16.17
2019-05-17T05:25:29.607Z,17.13
2019-05-17T05:26:36.379Z,16.87
2019-05-17T05:27:43.898Z,17.30
2019-05-17T05:28:52.915Z,18.03
2019-05-17T05:30:02.874Z,18.67
2019-05-17T05:31:08.882Z,17.53
2019-05-17T05:32:16.446Z,16.83
2019-05-17T05:33:23.243Z,17.30
2019-05-17T05:34:32.227Z,16.27
2019-05-17T05:35:42.205Z,16.73
2019-05-17T05:36:49.017Z,17.20
2019-05-17T05:37:55.790Z,17.20
2019-05-17T05:39:03.371Z,17.50
2019-05-17T05:40:12.613Z,15.93
2019-05-17T05:41:22.424Z,15.67
2019-05-17T05:42:28.466Z,15.70
2019-05-17T05:43:36.283Z,16.27
2019-05-17T05:44:43.380Z,16.93
2019-05-17T05:45:50.877Z,16.17
2019-05-17T05:46:57.641Z,15.13
2019-05-17T05:48:05.224Z,14.93
2019-05-17T05:49:12.734Z,15.63
2019-05-17T05:50:21.845Z,14.73
2019-05-17T05:51:28.752Z,16.10
2019-05-17T05:52:36.620Z,15.00
2019-05-17T05:53:43.372Z,13.93
2019-05-17T05:54:52.070Z,13.27
2019-05-17T05:55:59.055Z,15.70
2019-05-17T05:57:06.968Z,14.77
2019-05-17T05:58:13.993Z,13.70
2019-05-17T05:59:22.548Z,13.60
2019-05-17T06:00:33.042Z,15.07
2019-05-17T06:01:42.061Z,15.03
2019-05-17T06:02:48.484Z,14.80
2019-05-17T06:03:56.407Z,14.50
2019-05-17T06:05:03.495Z,15.80
2019-05-17T06:06:12.351Z,15.57
2019-05-17T06:07:21.685Z,13.10
2019-05-17T06:08:28.894Z,13.83
2019-05-17T06:09:35.678Z,13.87
2019-05-17T06:10:43.236Z,12.87
2019-05-17T06:11:51.906Z,12.60
2019-05-17T06:13:02.570Z,14.03
2019-05-17T06:14:08.196Z,13.13
2019-05-17T06:15:16.494Z,12.10
2019-05-17T06:16:23.261Z,13.33
2019-05-17T06:17:31.763Z,14.60
2019-05-17T06:18:39.487Z,12.60
2019-05-17T06:19:47.389Z,11.90
2019-05-17T06:20:54.876Z,12.20
2019-05-17T06:22:02.896Z,13.23
2019-05-17T06:23:12.360Z,11.77
2019-05-17T06:24:19.696Z,14.00
2019-05-17T06:25:26.975Z,13.73
2019-05-17T06:26:34.523Z,13.33
2019-05-17T06:27:41.786Z,11.60
2019-05-17T06:28:51.793Z,11.80
2019-05-17T06:29:58.250Z,10.50
2019-05-17T06:31:06.151Z,11.27
2019-05-17T06:32:13.109Z,10.53
2019-05-17T06:33:30.434Z,11.77
2019-05-17T06:34:32.772Z,11.10
2019-05-17T06:35:42.313Z,11.53
2019-05-17T06:36:49.420Z,10.60
2019-05-17T06:37:57.322Z,11.60
2019-05-17T06:39:06.594Z,10.43
2019-05-17T06:40:14.502Z,11.40
2019-05-17T06:41:21.629Z,11.97
2019-05-17T06:42:38.260Z,11.37
2019-05-17T06:43:38.554Z,11.30
2019-05-17T06:44:46.478Z,11.87
2019-05-17T06:45:53.267Z,11.80
2019-05-17T06:47:02.654Z,11.13
2019-05-17T06:48:11.738Z,12.70
2019-05-17T06:49:19.531Z,12.20
2019-05-17T06:50:26.656Z,12.23
2019-05-17T06:51:34.181Z,12.17
2019-05-17T06:52:43.425Z,12.03
2019-05-17T06:53:52.222Z,11.77
2019-05-17T06:54:58.961Z,11.53
2019-05-17T06:56:06.660Z,12.07
2019-05-17T06:57:13.427Z,11.87
2019-05-17T06:58:22.271Z,13.83
2019-05-17T06:59:29.297Z,13.07
2019-05-17T07:00:37.224Z,12.73
2019-05-17T07:01:43.985Z,11.30
2019-05-17T07:02:51.486Z,10.77
2019-05-17T07:04:00.290Z,11.47
2019-05-17T07:05:10.867Z,12.87
2019-05-17T07:06:21.546Z,11.77
2019-05-17T07:07:30.436Z,11.73
2019-05-17T07:08:40.100Z,12.80
2019-05-17T07:09:49.678Z,12.60
2019-05-17T07:10:59.576Z,12.10
2019-05-17T07:12:06.531Z,11.70
2019-05-17T07:13:13.720Z,11.50
2019-05-17T07:14:21.512Z,12.33
2019-05-17T07:15:43.298Z,13.00
2019-05-17T07:16:39.693Z,13.37
2019-05-17T07:17:47.452Z,12.70
2019-05-17T07:18:55.249Z,13.13
2019-05-17T07:20:02.951Z,13.23
2019-05-17T07:21:10.945Z,13.30
2019-05-17T07:22:18.041Z,12.43
2019-05-17T07:23:25.609Z,11.90
2019-05-17T07:24:32.362Z,12.73
2019-05-17T07:25:40.064Z,13.60
2019-05-17T07:26:46.802Z,10.87
2019-05-17T07:27:54.741Z,12.13
2019-05-17T07:29:01.514Z,11.30
2019-05-17T07:30:10.183Z,12.60
2019-05-17T07:31:19.642Z,10.67
2019-05-17T07:32:26.779Z,11.40
2019-05-17T07:33:33.542Z,11.43
2019-05-17T07:34:41.414Z,10.27
2019-05-17T07:35:50.136Z,9.60
2019-05-17T07:36:59.651Z,9.73
2019-05-17T07:38:06.201Z,9.10
2019-05-17T07:39:13.702Z,9.07
2019-05-17T07:40:20.856Z,9.70
2019-05-17T07:41:29.857Z,10.37
2019-05-17T07:42:39.465Z,8.70
2019-05-17T07:43:46.289Z,9.40
2019-05-17T07:44:53.403Z,8.50
2019-05-17T07:46:01.205Z,8.57
2019-05-17T07:47:09.706Z,8.40
2019-05-17T07:48:19.778Z,8.20
2019-05-17T07:49:26.101Z,7.60
2019-05-17T07:50:33.979Z,8.17
2019-05-17T07:51:40.717Z,8.07
2019-05-17T07:52:49.970Z,8.07
2019-05-17T07:53:56.688Z,8.70
2019-05-17T07:55:04.228Z,8.63
2019-05-17T07:56:11.781Z,8.50
2019-05-17T07:57:20.731Z,8.10
2019-05-17T07:58:29.714Z,8.40
2019-05-17T07:59:39.597Z,9.13
2019-05-17T08:00:45.661Z,8.53
2019-05-17T08:01:53.291Z,8.27
2019-05-17T08:03:00.802Z,8.30
2019-05-17T08:04:10.004Z,9.03
2019-05-17T08:05:17.498Z,8.10
2019-05-17T08:06:25.336Z,8.20
2019-05-17T08:07:32.448Z,7.83
2019-05-17T08:08:40.945Z,8.00
2019-05-17T08:09:50.469Z,8.70
2019-05-17T08:11:00.133Z,8.50
2019-05-17T08:12:05.769Z,8.30
2019-05-17T08:13:25.481Z,8.00
2019-05-17T08:14:29.535Z,8.60
2019-05-17T08:15:31.628Z,8.20
2019-05-17T08:16:39.492Z,8.20
2019-05-17T08:17:50.047Z,8.40
2019-05-17T08:18:56.854Z,8.33
2019-05-17T08:20:04.711Z,8.40
2019-05-17T08:21:11.860Z,8.57
2019-05-17T08:22:20.230Z,10.10
2019-05-17T08:23:30.204Z,8.40
2019-05-17T08:24:36.799Z,7.90
2019-05-17T08:25:52.707Z,7.37
2019-05-17T08:26:53.187Z,8.23
2019-05-17T08:28:00.264Z,7.50
2019-05-17T08:29:09.859Z,8.63
2019-05-17T08:30:17.177Z,7.80
2019-05-17T08:31:24.673Z,9.00
2019-05-17T08:32:31.859Z,8.33
2019-05-17T08:33:40.648Z,9.20
2019-05-17T08:34:49.546Z,9.17
2019-05-17T08:35:59.624Z,8.40
2019-05-17T08:37:06.386Z,9.37
2019-05-17T08:38:13.889Z,9.10
2019-05-17T08:39:20.641Z,9.77
2019-05-17T08:40:30.477Z,8.60
2019-05-17T08:41:37.087Z,8.87
2019-05-17T08:42:44.614Z,8.57
2019-05-17T08:43:51.761Z,7.53
2019-05-17T08:45:00.285Z,7.87
2019-05-17T08:46:10.339Z,9.93
2019-05-17T08:47:16.853Z,9.00
2019-05-17T08:48:23.802Z,8.60
2019-05-17T08:49:31.299Z,9.30
2019-05-17T08:50:40.257Z,9.47
2019-05-17T08:51:49.944Z,9.13
2019-05-17T08:52:56.243Z,9.00
2019-05-17T08:54:03.887Z,8.40
2019-05-17T08:55:10.897Z,9.17
2019-05-17T08:56:20.552Z,7.90
2019-05-17T08:57:26.888Z,8.30
2019-05-17T08:58:34.746Z,9.67
2019-05-17T08:59:41.552Z,8.77
2019-05-17T09:00:50.508Z,9.30
2019-05-17T09:01:59.954Z,9.53
2019-05-17T09:03:10.354Z,8.10
2019-05-17T09:04:16.589Z,9.70
2019-05-17T09:05:24.569Z,9.37
2019-05-17T09:06:31.352Z,10.20
2019-05-17T09:07:40.261Z,9.90
2019-05-17T09:08:49.812Z,10.20
2019-05-17T09:09:57.384Z,9.93
2019-05-17T09:11:04.196Z,10.03
2019-05-17T09:12:11.849Z,9.83
2019-05-17T09:13:19.550Z,9.60
2019-05-17T09:14:29.338Z,10.70
2019-05-17T09:15:35.801Z,11.23
2019-05-17T09:16:43.354Z,11.73
2019-05-17T09:17:50.127Z,10.60
2019-05-17T09:18:57.625Z,11.13
2019-05-17T09:20:04.985Z,11.60
2019-05-17T09:21:12.499Z,10.53
2019-05-17T09:22:19.830Z,9.90
2019-05-17T09:23:27.577Z,10.70
2019-05-17T09:24:34.332Z,9.50
2019-05-17T09:25:42.211Z,9.10
2019-05-17T09:26:49.336Z,9.37
2019-05-17T09:27:57.413Z,9.03
2019-05-17T09:29:04.180Z,9.90
2019-05-17T09:30:13.518Z,10.10
2019-05-17T09:31:20.582Z,9.87
2019-05-17T09:32:29.620Z,9.77
2019-05-17T09:33:36.674Z,9.13
2019-05-17T09:34:44.273Z,9.10
2019-05-17T09:35:51.046Z,10.67
2019-05-17T09:37:00.312Z,9.77
2019-05-17T09:38:09.850Z,10.37
2019-05-17T09:39:16.691Z,9.30
2019-05-17T09:40:23.457Z,9.60
2019-05-17T09:41:31.402Z,10.33
2019-05-17T09:42:40.831Z,8.10
2019-05-17T09:43:49.664Z,8.20
2019-05-17T09:44:56.355Z,7.90
2019-05-17T09:46:03.923Z,8.70
2019-05-17T09:47:10.685Z,8.20
2019-05-17T09:48:19.647Z,8.10
2019-05-17T09:49:26.832Z,7.10
2019-05-17T09:50:34.349Z,8.03
2019-05-17T09:51:41.146Z,7.13
2019-05-17T09:52:49.439Z,6.77
2019-05-17T09:53:56.440Z,5.80
2019-05-17T09:55:04.281Z,6.97
2019-05-17T09:56:11.229Z,5.50
2019-05-17T09:57:20.460Z,5.97
2019-05-17T09:58:29.800Z,5.87
2019-05-17T09:59:36.754Z,6.30
2019-05-17T10:00:43.965Z,5.37
2019-05-17T10:01:52.170Z,5.33
2019-05-17T10:03:00.050Z,5.40
2019-05-17T10:04:07.726Z,6.17
2019-05-17T10:05:14.587Z,5.90
2019-05-17T10:06:22.084Z,5.67
2019-05-17T10:07:29.867Z,5.83
2019-05-17T10:08:39.423Z,6.70
2019-05-17T10:09:47.150Z,6.13
2019-05-17T10:11:04.981Z,5.33
2019-05-17T10:12:03.572Z,5.63
2019-05-17T10:13:11.109Z,5.47
2019-05-17T10:14:25.804Z,5.80
2019-05-17T10:15:29.956Z,5.20
2019-05-17T10:16:36.091Z,6.23
2019-05-17T10:17:44.415Z,5.87
2019-05-17T10:18:51.224Z,6.20
2019-05-17T10:19:59.929Z,6.00
2019-05-17T10:21:07.156Z,5.77
2019-05-17T10:22:14.819Z,5.03
2019-05-17T10:23:21.612Z,5.87
2019-05-17T10:24:38.078Z,5.73
2019-05-17T10:25:40.074Z,6.33
2019-05-17T10:26:49.891Z,6.93
2019-05-17T10:27:56.802Z,6.17
2019-05-17T10:29:04.803Z,6.63
2019-05-17T10:30:12.315Z,6.20
2019-05-17T10:31:19.913Z,6.70
2019-05-17T10:32:27.547Z,6.97
2019-05-17T10:33:35.254Z,6.80
2019-05-17T10:34:42.229Z,6.73
2019-05-17T10:35:50.116Z,6.30
2019-05-17T10:36:56.897Z,5.73
2019-05-17T10:38:04.786Z,6.90
2019-05-17T10:39:11.723Z,6.07
2019-05-17T10:40:20.973Z,6.60
2019-05-17T10:41:29.970Z,6.67
2019-05-17T10:42:39.349Z,6.37
2019-05-17T10:43:45.498Z,5.80
2019-05-17T10:44:54.732Z,6.43
2019-05-17T10:46:02.154Z,6.50
2019-05-17T10:47:10.226Z,6.13
2019-05-17T10:48:17.521Z,6.73
2019-05-17T10:49:25.543Z,6.30
2019-05-17T10:50:32.717Z,6.67
2019-05-17T10:51:40.404Z,7.03
2019-05-17T10:52:47.629Z,6.50
2019-05-17T10:53:55.126Z,6.03
2019-05-17T10:55:01.998Z,6.13
2019-05-17T10:56:09.960Z,7.07
2019-05-17T10:57:19.449Z,6.17
2019-05-17T10:58:27.078Z,6.70
2019-05-17T10:59:33.911Z,7.20
2019-05-17T11:00:41.758Z,6.93
2019-05-17T11:01:50.155Z,6.93
2019-05-17T11:03:00.479Z,7.77
2019-05-17T11:04:06.714Z,7.10
2019-05-17T11:05:14.835Z,6.67
2019-05-17T11:06:21.990Z,7.17
2019-05-17T11:07:30.117Z,7.17
2019-05-17T11:08:37.040Z,6.53
2019-05-17T11:09:44.569Z,6.20
2019-05-17T11:10:51.317Z,6.70
2019-05-17T11:11:58.926Z,7.40
2019-05-17T11:13:06.022Z,6.87
2019-05-17T11:14:13.816Z,7.27
2019-05-17T11:15:20.598Z,7.07
2019-05-17T11:16:28.479Z,6.10
2019-05-17T11:17:35.430Z,6.97
2019-05-17T11:18:43.066Z,7.63
2019-05-17T11:19:49.830Z,7.07
2019-05-17T11:20:57.715Z,6.67
2019-05-17T11:22:05.153Z,6.30
2019-05-17T11:23:12.677Z,6.70
2019-05-17T11:24:19.523Z,6.30
2019-05-17T11:25:27.094Z,6.20
2019-05-17T11:26:34.852Z,6.50
2019-05-17T11:27:42.865Z,7.10
2019-05-17T11:28:49.632Z,5.37
2019-05-17T11:29:57.206Z,7.03
2019-05-17T11:31:04.028Z,7.87
2019-05-17T11:32:11.528Z,7.20
2019-05-17T11:33:18.852Z,6.90
2019-05-17T11:34:26.353Z,7.13
2019-05-17T11:35:33.497Z,7.80
2019-05-17T11:36:41.001Z,7.80
2019-05-17T11:37:47.745Z,6.50
2019-05-17T11:38:55.451Z,7.93
2019-05-17T11:40:02.234Z,8.30
2019-05-17T11:41:20.558Z,7.20
2019-05-17T11:42:18.754Z,7.10
2019-05-17T11:43:26.923Z,7.67
2019-05-17T11:44:33.925Z,7.53
2019-05-17T11:45:41.442Z,7.80
2019-05-17T11:46:48.198Z,8.00
2019-05-17T11:47:55.768Z,7.50
2019-05-17T11:49:02.526Z,7.67
2019-05-17T11:50:10.894Z,7.37
2019-05-17T11:51:19.061Z,8.00
2019-05-17T11:52:26.949Z,6.70
2019-05-17T11:53:33.708Z,7.43
2019-05-17T11:54:41.231Z,7.97
2019-05-17T11:55:48.003Z,8.27
2019-05-17T11:56:55.893Z,8.17
2019-05-17T11:58:02.654Z,7.90
2019-05-17T11:59:10.345Z,7.80
2019-05-17T12:00:19.883Z,7.23
2019-05-17T12:01:27.555Z,7.90
2019-05-17T12:02:34.821Z,6.63
2019-05-17T12:03:43.185Z,7.90
2019-05-17T12:04:49.946Z,7.20
2019-05-17T12:05:57.841Z,7.90
2019-05-17T12:07:05.131Z,8.00
2019-05-17T12:08:13.478Z,7.87
2019-05-17T12:09:20.611Z,8.00
2019-05-17T12:10:28.172Z,7.00
2019-05-17T12:11:35.247Z,7.90
2019-05-17T12:12:42.974Z,6.63
2019-05-17T12:13:49.869Z,7.13
2019-05-17T12:14:57.352Z,7.43
2019-05-17T12:16:04.717Z,7.97
2019-05-17T12:17:12.259Z,7.30
2019-05-17T12:18:19.445Z,7.83
2019-05-17T12:19:27.282Z,6.97
2019-05-17T12:20:34.080Z,6.47
2019-05-17T12:21:41.895Z,6.90
2019-05-17T12:22:48.777Z,6.50
2019-05-17T12:23:56.557Z,7.80
2019-05-17T12:25:03.302Z,6.80
2019-05-17T12:26:10.847Z,7.13
2019-05-17T12:27:17.999Z,7.23
2019-05-17T12:28:25.857Z,7.87
2019-05-17T12:29:33.325Z,6.93
2019-05-17T12:30:40.833Z,7.33
2019-05-17T12:31:48.024Z,6.30
2019-05-17T12:32:55.908Z,7.53
2019-05-17T12:34:03.071Z,7.37
2019-05-17T12:35:11.075Z,6.10
2019-05-17T12:36:17.837Z,9.03
2019-05-17T12:37:25.358Z,7.57
2019-05-17T12:38:32.750Z,7.43
2019-05-17T12:39:40.288Z,6.70
2019-05-17T12:40:47.044Z,8.10
2019-05-17T12:41:54.703Z,6.97
2019-05-17T12:43:01.550Z,7.40
2019-05-17T12:44:09.125Z,6.97
2019-05-17T12:45:16.691Z,7.67
2019-05-17T12:46:24.191Z,6.93
2019-05-17T12:47:30.998Z,7.87
2019-05-17T12:48:38.588Z,6.90
2019-05-17T12:49:45.352Z,6.73
2019-05-17T12:50:53.104Z,6.73
2019-05-17T12:51:59.857Z,8.10
2019-05-17T12:53:08.235Z,7.70
2019-05-17T12:54:15.312Z,8.00
2019-05-17T12:55:22.884Z,7.77
2019-05-17T12:56:29.980Z,8.53
2019-05-17T12:57:37.522Z,7.83
2019-05-17T12:58:44.622Z,8.03
2019-05-17T12:59:52.137Z,7.50
2019-05-17T13:00:58.929Z,8.27
2019-05-17T13:02:06.637Z,8.10
2019-05-17T13:03:13.425Z,8.47
2019-05-17T13:04:41.876Z,8.13
2019-05-17T13:05:49.340Z,8.13
2019-05-17T13:06:57.772Z,8.00
2019-05-17T13:08:04.836Z,7.47
2019-05-17T13:09:12.437Z,7.87
2019-05-17T13:10:20.011Z,7.93
2019-05-17T13:11:27.932Z,7.10
2019-05-17T13:12:35.699Z,7.63
2019-05-17T13:13:43.200Z,7.97
2019-05-17T13:14:49.966Z,7.57
2019-05-17T13:15:57.899Z,8.17
2019-05-17T13:17:04.880Z,8.10
2019-05-17T13:18:13.615Z,7.07
2019-05-17T13:19:20.385Z,8.53
2019-05-17T13:20:28.328Z,8.87
2019-05-17T13:21:35.209Z,7.60
2019-05-17T13:22:42.928Z,8.27
2019-05-17T13:23:52.116Z,7.20
2019-05-17T13:24:59.611Z,7.70
2019-05-17T13:26:06.478Z,8.47
2019-05-17T13:27:14.448Z,7.90
2019-05-17T13:28:21.577Z,7.93
2019-05-17T13:29:29.387Z,7.67
2019-05-17T13:30:36.215Z,7.00
2019-05-17T13:31:43.755Z,7.50
2019-05-17T13:32:50.889Z,7.23
2019-05-17T13:33:58.705Z,8.37
2019-05-17T13:35:06.173Z,8.27
2019-05-17T13:36:13.861Z,7.73
2019-05-17T13:37:21.316Z,8.33
2019-05-17T13:38:29.139Z,8.10
2019-05-17T13:39:36.329Z,8.63
2019-05-17T13:40:43.842Z,8.90
2019-05-17T13:41:50.979Z,9.20
2019-05-17T13:42:58.818Z,7.57
2019-05-17T13:44:06.235Z,8.30
2019-05-17T13:45:14.362Z,9.20
2019-05-17T13:46:32.797Z,7.67
2019-05-17T13:47:31.096Z,8.20
2019-05-17T13:48:39.661Z,8.17
2019-05-17T13:49:47.741Z,9.57
2019-05-17T13:50:54.603Z,9.03
2019-05-17T13:52:02.632Z,8.90
2019-05-17T13:53:09.484Z,8.60
2019-05-17T13:54:17.301Z,8.60
2019-05-17T13:55:24.430Z,8.67
2019-05-17T13:56:32.231Z,9.17
2019-05-17T13:57:39.064Z,9.70
2019-05-17T13:58:46.627Z,9.43
2019-05-17T13:59:53.883Z,9.50
2019-05-17T14:01:01.739Z,10.37
2019-05-17T14:02:09.409Z,8.10
2019-05-17T14:03:17.277Z,8.87
2019-05-17T14:04:24.142Z,8.73
2019-05-17T14:05:31.964Z,8.53
2019-05-17T14:06:38.998Z,9.20
2019-05-17T14:07:47.005Z,9.80
2019-05-17T14:08:53.800Z,8.20
2019-05-17T14:10:01.818Z,9.33
2019-05-17T14:11:08.895Z,9.30
2019-05-17T14:12:16.757Z,10.10
2019-05-17T14:13:24.020Z,9.73
2019-05-17T14:14:32.030Z,9.03
2019-05-17T14:15:38.898Z,8.90
2019-05-17T14:16:47.151Z,9.70
2019-05-17T14:17:54.179Z,10.50
2019-05-17T14:19:02.522Z,9.73
2019-05-17T14:20:10.487Z,10.07
2019-05-17T14:21:18.311Z,9.47
2019-05-17T14:22:25.331Z,10.20
2019-05-17T14:23:33.374Z,10.33
2019-05-17T14:24:40.349Z,9.40
2019-05-17T14:25:48.039Z,10.07
2019-05-17T14:26:55.085Z,9.20
2019-05-17T14:28:02.900Z,9.90
2019-05-17T14:29:09.730Z,9.20
2019-05-17T14:30:17.807Z,9.33
2019-05-17T14:31:24.960Z,9.10
2019-05-17T14:32:32.506Z,10.00
2019-05-17T14:33:39.296Z,9.07
2019-05-17T14:34:46.799Z,7.80
2019-05-17T14:35:53.609Z,8.73
2019-05-17T14:37:01.477Z,8.80
2019-05-17T14:38:08.653Z,8.90
2019-05-17T14:39:17.172Z,8.50
2019-05-17T14:40:23.940Z,7.20
2019-05-17T14:41:31.856Z,7.13
2019-05-17T14:42:39.135Z,8.30
2019-05-17T14:43:46.762Z,7.93
2019-05-17T14:44:53.685Z,7.50
2019-05-17T14:46:01.765Z,8.77
2019-05-17T14:47:08.550Z,6.13
2019-05-17T14:48:16.897Z,7.80